• Join FlightAware (Why Join?)
  • Login
  • US Flag 
02:54AM EDT


 

Airport Tracker/Info


-or-


 

Live Flight TrackerFlight Track Log ✈ CPT8912 ✈ 12-Sep-2013 ✈ KCOD - KCPR

Flight Track Log - Related Links

Times and Time Zones

All times are in EDT time to prevent confusion due to time zone crossing. See the CPT8912 flight status page for this flight to view local times or setup timezone preferences in your user account.

Time Position Orientation Groundspeed Altitude Reporting Facility
EDT Latitude Longitude Course Direction KTS MPH feet Rate Location/Type
01:14PM 44.5108 -108.8786 99° East 116 133 9,100  Level Salt Lake Center
01:15PM 44.5075 -108.8339 96° East 116 133 10,300 960 Climbing Salt Lake Center
01:16PM 44.5042 -108.7839 95° East 113 130 11,100 300 Climbing Salt Lake Center
01:17PM 44.4775 -108.7425 132° Southeast 133 153 11,000 -60 Descending Salt Lake Center
01:18PM 44.4514 -108.7039 133° Southeast 140 161 11,000  Level Salt Lake Center
01:19PM 44.4283 -108.6661 131° Southeast 136 157 11,000  Level Salt Lake Center
01:20PM 44.4039 -108.6281 132° Southeast 133 153 11,000  Level Salt Lake Center
01:21PM 44.3744 -108.5836 133° Southeast 132 152 11,000  Level Salt Lake Center
01:22PM 44.3500 -108.5447 131° Southeast 132 152 11,000  Level Salt Lake Center
01:23PM 44.3261 -108.5064 131° Southeast 132 152 11,000  Level Salt Lake Center
01:24PM 44.3008 -108.4692 133° Southeast 132 152 11,000  Level Salt Lake Center
01:25PM 44.2753 -108.4306 133° Southeast 134 154 11,000  Level Salt Lake Center
01:26PM 44.2494 -108.3906 132° Southeast 136 157 11,000  Level Salt Lake Center
01:27PM 44.2189 -108.3442 133° Southeast 137 158 11,000  Level Salt Lake Center
01:28PM 44.1953 -108.3056 130° Southeast 135 155 11,000  Level Salt Lake Center
01:29PM 44.1700 -108.2672 133° Southeast 134 154 11,000  Level Salt Lake Center
01:30PM 44.1453 -108.2303 133° Southeast 133 153 11,000  Level Salt Lake Center
01:31PM 44.1203 -108.1942 134° Southeast 132 152 11,000  Level Salt Lake Center
01:32PM 44.0919 -108.1503 132° Southeast 130 150 11,000  Level Salt Lake Center
01:33PM 44.0681 -108.1133 132° Southeast 129 148 11,000  Level Salt Lake Center
01:34PM 44.0439 -108.0769 133° Southeast 129 148 11,000  Level Salt Lake Center
01:35PM 44.0192 -108.0406 133° Southeast 129 148 11,000  Level Salt Lake Center
01:37PM 43.9953 -108.0047 133° Southeast 128 147 11,000  Level Salt Lake Center
01:38PM 43.9711 -107.9678 132° Southeast 128 147 11,000  Level Salt Lake Center
01:39PM 43.9439 -107.9217 129° Southeast 129 148 11,000  Level Salt Lake Center
01:40PM 43.9233 -107.8803 125° Southeast 129 148 11,000  Level Salt Lake Center
01:41PM 43.9036 -107.8383 123° Southeast 130 150 11,000  Level Salt Lake Center
01:42PM 43.8833 -107.7972 124° Southeast 130 150 11,000  Level Salt Lake Center
01:43PM 43.8622 -107.7569 126° Southeast 130 150 11,100 360 Climbing Salt Lake Center
01:44PM 43.8467 -107.7042 112° Southeast 127 146 11,800 480 Climbing Salt Lake Center
01:45PM 43.8400 -107.6561 101° East 125 144 12,100 60 Climbing Salt Lake Center
01:46PM 43.8311 -107.6031 103° East 131 151 12,000 -60 Descending Salt Lake Center
01:47PM 43.8225 -107.5486 102° East 137 158 12,000  Level Salt Lake Center
01:48PM 43.8133 -107.4967 104° East 139 160 12,100  Climbing Salt Lake Center
01:49PM 43.8006 -107.4342 106° East 141 162 12,000 -60 Descending Salt Lake Center
01:50PM 43.7897 -107.3811 106° East 142 163 12,000  Level Salt Lake Center
01:51PM 43.7792 -107.3286 106° East 142 163 12,000  Level Salt Lake Center
01:52PM 43.7697 -107.2764 104° East 142 163 12,100  Climbing Salt Lake Center
01:53PM 43.7617 -107.2239 102° East 141 162 12,000  Descending Salt Lake Center
01:54PM 43.7522 -107.1733 104° East 138 159 12,100  Climbing Salt Lake Center
01:55PM 43.7394 -107.1136 106° East 136 157 12,100  Level Salt Lake Center
01:56PM 43.7256 -107.0672 112° Southeast 134 154 12,100 -60 Level Salt Lake Center
01:57PM 43.7103 -107.0203 114° Southeast 135 155 12,000  Descending Salt Lake Center
01:58PM 43.6961 -106.9733 113° Southeast 133 153 12,100  Climbing Salt Lake Center
01:59PM 43.6825 -106.9258 112° Southeast 133 153 12,100 -60 Level Salt Lake Center
02:00PM 43.6642 -106.8722 115° Southeast 134 154 12,000 -60 Descending Salt Lake Center
02:01PM 43.6522 -106.8325 113° Southeast 133 153 12,000  Level Denver Center
02:02PM 43.6336 -106.7911 122° Southeast 135 155 12,000  Level Denver Center
02:03PM 43.6067 -106.7464 130° Southeast 135 155 12,000  Level Denver Center
02:04PM 43.5706 -106.7039 140° Southeast 134 154 12,000  Level Salt Lake Center
02:05PM 43.5389 -106.6772 149° Southeast 136 157 12,000  Level Salt Lake Center
02:07PM 43.5067 -106.6519 150° Southeast 138 159 12,100  Climbing Salt Lake Center
02:07PM 43.4839 -106.6244 139° Southeast 138 159 12,100 -60 Level Denver Center
02:08PM 43.4464 -106.5931 149° Southeast 141 162 12,000 -240 Descending Denver Center
02:09PM 43.4139 -106.5653 148° Southeast 143 165 11,700 -480 Descending Denver Center
02:10PM 43.3775 -106.5294 144° Southeast 143 165 11,100 -600 Descending Denver Center
02:11PM 43.3464 -106.5000 145° Southeast 142 163 10,500 -540 Descending Denver Center
02:12PM 43.3089 -106.4675 148° Southeast 142 163 10,000 -300 Descending Denver Center
02:14PM 43.2778 -106.4386 146° Southeast 142 163 10,000 -420 Level Denver Center
02:15PM 43.2336 -106.4389 180° South 149 171 9,200 -540 Descending Denver Center
02:16PM 43.1928 -106.4417 183° South 152 175 9,000 -120 Descending Denver Center
02:17PM 43.1492 -106.4444 183° South 148 170 9,000  Level Denver Center
02:18PM 43.1139 -106.4469 183° South 142 163 9,000  Level Denver Center
02:19PM 43.0750 -106.4794 211° Southwest 148 170 9,100  Climbing Denver Center
02:20PM 43.0428 -106.5161 220° Southwest 154 177 9,100  Level Denver Center
02:21PM 43.0047 -106.5578 219° Southwest 157 181 9,100 -60 Level Denver Center
02:22PM 42.9722 -106.5906 216° Southwest 155 178 9,000 -60 Descending Denver Center
02:23PM 42.9336 -106.6225 211° Southwest 150 173 9,000 -240 Level Denver Center
02:24PM 42.8989 -106.6456 206° Southwest 147 169 8,600 -360 Descending Denver Center
02:25PM 42.8597 -106.6736 208° Southwest 147 169 8,300 -300 Descending Denver Center